createdAt,value
2019-01-29T00:03:41.395Z,19.30
2019-01-29T00:08:42.676Z,18.60
2019-01-29T00:13:43.882Z,18.60
2019-01-29T00:18:45.236Z,18.60
2019-01-29T00:23:46.488Z,18.20
2019-01-29T00:28:47.763Z,18.70
2019-01-29T00:33:49.102Z,18.50
2019-01-29T00:38:50.464Z,18.50
2019-01-29T00:43:51.728Z,18.70
2019-01-29T00:48:52.975Z,18.90
2019-01-29T00:53:54.228Z,18.90
2019-01-29T00:58:55.494Z,18.80
2019-01-29T01:03:56.774Z,19.00
2019-01-29T01:08:58.033Z,18.80
2019-01-29T01:13:59.275Z,18.70
2019-01-29T01:19:00.627Z,18.60
2019-01-29T01:24:01.979Z,18.50
2019-01-29T01:29:03.535Z,19.30
2019-01-29T01:34:04.789Z,18.90
2019-01-29T01:39:07.227Z,19.10
2019-01-29T01:44:08.462Z,19.30
2019-01-29T01:49:09.803Z,19.30
2019-01-29T01:54:11.051Z,19.30
2019-01-29T01:59:12.302Z,19.30
2019-01-29T02:04:13.659Z,19.40
2019-01-29T02:09:14.915Z,19.30
2019-01-29T02:14:16.195Z,19.20
2019-01-29T02:19:17.424Z,19.20
2019-01-29T02:24:18.737Z,19.20
2019-01-29T02:29:19.939Z,19.30
2019-01-29T02:34:21.183Z,19.20
2019-01-29T02:39:22.421Z,19.20
2019-01-29T02:44:23.679Z,19.20
2019-01-29T02:49:24.917Z,19.20
2019-01-29T02:54:26.179Z,19.20
2019-01-29T02:59:27.423Z,19.30
2019-01-29T03:04:28.685Z,19.20
2019-01-29T03:09:29.930Z,19.10
2019-01-29T03:14:31.185Z,19.10
2019-01-29T03:19:32.464Z,19.10
2019-01-29T03:24:33.707Z,19.10
2019-01-29T03:29:34.947Z,18.90
2019-01-29T03:34:36.184Z,18.90
2019-01-29T03:39:37.482Z,18.90
2019-01-29T03:44:38.677Z,18.90
2019-01-29T03:49:39.939Z,18.90
2019-01-29T03:54:41.183Z,18.80
2019-01-29T03:59:42.512Z,18.80
2019-01-29T04:04:43.757Z,18.90
2019-01-29T04:09:45.570Z,19.10
2019-01-29T04:14:46.831Z,18.80
2019-01-29T04:19:48.077Z,18.50
2019-01-29T04:24:49.319Z,18.20
2019-01-29T04:29:50.580Z,18.10
2019-01-29T04:34:51.922Z,18.50
2019-01-29T04:39:53.160Z,17.60
2019-01-29T04:44:54.459Z,17.20
2019-01-29T04:49:55.707Z,17.10
2019-01-29T04:54:56.948Z,17.80
2019-01-29T04:59:58.197Z,18.00
2019-01-29T05:04:59.452Z,17.90
2019-01-29T05:10:00.737Z,18.10
2019-01-29T05:15:05.750Z,18.20
2019-01-29T05:20:11.396Z,18.40
2019-01-29T05:25:13.633Z,18.50
2019-01-29T05:30:20.734Z,18.60
2019-01-29T05:35:22.315Z,18.50
2019-01-29T05:40:23.750Z,18.60
2019-01-29T05:45:24.992Z,18.30
2019-01-29T05:50:26.239Z,18.20
2019-01-29T05:55:27.479Z,18.30
2019-01-29T06:00:30.849Z,18.20
2019-01-29T06:05:32.323Z,18.00
2019-01-29T06:10:33.575Z,18.00
2019-01-29T06:15:34.939Z,17.90
2019-01-29T06:20:36.177Z,17.90
2019-01-29T06:25:39.211Z,18.50
2019-01-29T06:30:40.686Z,18.10
2019-01-29T06:35:41.931Z,18.20
2019-01-29T06:40:43.194Z,18.30
2019-01-29T06:45:44.479Z,18.40
2019-01-29T06:50:45.709Z,18.30
2019-01-29T06:55:46.946Z,18.50
2019-01-29T07:00:48.197Z,18.50
2019-01-29T07:05:49.476Z,18.40
2019-01-29T07:10:51.226Z,18.40
2019-01-29T07:15:57.365Z,18.30
2019-01-29T07:20:58.829Z,18.20
2019-01-29T07:26:00.090Z,18.80
2019-01-29T07:31:01.848Z,19.20
2019-01-29T07:36:03.502Z,18.80
2019-01-29T07:41:04.846Z,18.20
2019-01-29T07:46:06.506Z,18.00
2019-01-29T07:51:07.860Z,17.10
2019-01-29T07:56:09.109Z,16.60
2019-01-29T08:01:10.363Z,15.40
2019-01-29T08:06:11.604Z,15.10
2019-01-29T08:11:12.846Z,13.40
2019-01-29T08:16:15.504Z,11.40
2019-01-29T08:21:16.974Z,11.10
2019-01-29T08:26:18.221Z,10.20
2019-01-29T08:31:19.464Z,9.10
2019-01-29T08:36:20.911Z,10.00
2019-01-29T08:41:22.166Z,10.20
2019-01-29T08:46:23.522Z,11.90
2019-01-29T08:51:24.756Z,11.50
2019-01-29T08:56:26.301Z,12.80
2019-01-29T09:01:27.535Z,13.80
2019-01-29T09:06:28.771Z,14.00
2019-01-29T09:11:30.011Z,14.00
2019-01-29T09:16:31.254Z,13.30
2019-01-29T09:21:32.492Z,11.30
2019-01-29T09:26:33.771Z,10.50
2019-01-29T09:31:34.992Z,9.80
2019-01-29T09:36:36.331Z,10.20
2019-01-29T09:41:37.570Z,10.10
2019-01-29T09:46:38.932Z,9.40
2019-01-29T09:51:40.289Z,9.60
2019-01-29T09:56:41.539Z,10.00
2019-01-29T10:01:42.786Z,9.50
2019-01-29T10:06:44.293Z,9.50
2019-01-29T10:11:45.489Z,10.10
2019-01-29T10:16:46.719Z,9.60
2019-01-29T10:21:47.966Z,9.30
2019-01-29T10:26:49.240Z,9.80
2019-01-29T10:31:50.495Z,9.00
2019-01-29T10:36:51.843Z,9.00
2019-01-29T10:41:53.089Z,9.40
2019-01-29T10:46:54.446Z,8.80
2019-01-29T10:51:55.784Z,8.80
2019-01-29T10:56:57.028Z,8.50
2019-01-29T11:01:58.288Z,8.50
2019-01-29T11:06:59.538Z,8.60
2019-01-29T11:12:00.781Z,8.20
2019-01-29T11:17:02.341Z,8.00
2019-01-29T11:22:04.293Z,8.30
2019-01-29T11:27:05.552Z,8.40
2019-01-29T11:32:06.915Z,8.10
2019-01-29T11:37:08.276Z,8.20
2019-01-29T11:42:09.525Z,7.70
2019-01-29T11:47:10.801Z,7.30
2019-01-29T11:52:12.049Z,7.50
2019-01-29T11:57:13.300Z,6.30
2019-01-29T12:02:14.552Z,4.60
2019-01-29T12:07:15.858Z,2.70
2019-01-29T12:12:17.053Z,2.40
2019-01-29T12:17:18.298Z,4.60
2019-01-29T12:22:19.835Z,3.60
2019-01-29T12:27:21.067Z,4.90
2019-01-29T12:32:22.368Z,1.70
2019-01-29T12:37:23.603Z,1.20
2019-01-29T12:42:24.874Z,2.40
2019-01-29T12:47:26.446Z,3.00
2019-01-29T12:52:29.598Z,2.40
2019-01-29T12:57:31.015Z,1.00
2019-01-29T13:02:32.256Z,1.60
2019-01-29T13:07:33.609Z,1.00
2019-01-29T13:12:36.487Z,1.00
2019-01-29T13:17:37.881Z,2.40
2019-01-29T13:22:39.134Z,1.00
2019-01-29T13:27:40.489Z,1.00
2019-01-29T13:32:41.746Z,1.00
2019-01-29T13:37:43.142Z,1.00
2019-01-29T13:42:44.406Z,1.00
2019-01-29T13:47:45.797Z,1.00
2019-01-29T13:52:47.154Z,1.00
2019-01-29T13:57:48.911Z,1.00
2019-01-29T14:02:52.202Z,1.00
2019-01-29T14:07:53.559Z,1.00
2019-01-29T14:12:55.145Z,1.00
2019-01-29T14:17:56.611Z,1.00
2019-01-29T14:22:57.978Z,1.00
2019-01-29T14:27:59.245Z,1.00
2019-01-29T14:33:00.595Z,1.00
2019-01-29T14:38:19.334Z,1.00
2019-01-29T14:43:26.734Z,1.00
2019-01-29T14:48:27.957Z,1.00
2019-01-29T14:53:29.202Z,1.00
2019-01-29T14:58:30.478Z,1.00
2019-01-29T15:03:31.734Z,1.00
2019-01-29T15:08:33.013Z,1.00
2019-01-29T15:13:34.252Z,1.00
2019-01-29T15:18:56.019Z,1.00
2019-01-29T15:23:57.283Z,1.00
2019-01-29T15:28:58.548Z,1.00
2019-01-29T15:33:59.822Z,1.00
2019-01-29T15:39:01.075Z,1.00
2019-01-29T15:44:02.869Z,1.00
2019-01-29T15:49:04.519Z,1.00
2019-01-29T15:54:06.973Z,1.00
2019-01-29T15:59:08.316Z,1.00
2019-01-29T16:04:09.683Z,1.00
2019-01-29T16:09:10.969Z,1.00
2019-01-29T16:14:12.236Z,1.00
2019-01-29T16:19:13.557Z,1.00
2019-01-29T16:24:14.790Z,1.00
2019-01-29T16:29:16.055Z,1.00
2019-01-29T16:34:17.467Z,1.00
2019-01-29T16:39:18.703Z,1.00
2019-01-29T16:44:19.995Z,1.00
2019-01-29T16:49:21.275Z,1.00
2019-01-29T16:54:22.544Z,1.00
2019-01-29T16:59:23.809Z,1.00
2019-01-29T17:04:25.070Z,1.00
2019-01-29T17:09:26.326Z,1.00
2019-01-29T17:14:27.608Z,1.00
2019-01-29T17:19:28.869Z,1.00
2019-01-29T17:24:30.124Z,1.00
2019-01-29T17:29:31.469Z,1.00
2019-01-29T17:34:32.846Z,1.00
2019-01-29T17:39:34.087Z,1.00
2019-01-29T17:44:35.360Z,1.00
2019-01-29T17:49:36.587Z,1.00
2019-01-29T17:54:37.848Z,1.00
2019-01-29T17:59:39.110Z,1.00
2019-01-29T18:04:40.451Z,1.00
2019-01-29T18:09:41.721Z,1.00
2019-01-29T18:14:42.995Z,1.00
2019-01-29T18:19:44.268Z,1.00
2019-01-29T18:24:45.567Z,1.50
2019-01-29T18:29:46.811Z,3.60
2019-01-29T18:34:48.079Z,5.20
2019-01-29T18:39:49.358Z,6.00
2019-01-29T18:44:50.741Z,6.80
2019-01-29T18:49:51.989Z,7.60
2019-01-29T18:54:53.272Z,7.90
2019-01-29T18:59:54.519Z,8.20
2019-01-29T19:04:55.803Z,8.80
2019-01-29T19:09:57.304Z,8.90
2019-01-29T19:14:58.554Z,9.50
2019-01-29T19:19:59.926Z,9.70
2019-01-29T19:25:01.478Z,10.10
2019-01-29T19:30:16.579Z,10.40
2019-01-29T19:35:18.164Z,9.90
2019-01-29T19:40:19.807Z,10.40
2019-01-29T19:45:27.819Z,10.20
2019-01-29T19:50:31.318Z,11.20
2019-01-29T19:55:32.669Z,11.80
2019-01-29T20:00:37.852Z,13.10
2019-01-29T20:05:39.211Z,13.10
2019-01-29T20:10:40.715Z,13.20
2019-01-29T20:15:42.345Z,13.60
2019-01-29T20:20:43.602Z,13.80
2019-01-29T20:25:44.960Z,13.50
2019-01-29T20:30:46.209Z,14.00
2019-01-29T20:35:47.574Z,13.70
2019-01-29T20:40:48.964Z,14.00
2019-01-29T20:45:50.271Z,13.70
2019-01-29T20:50:51.704Z,13.60
2019-01-29T20:55:53.010Z,13.80
2019-01-29T21:00:56.745Z,13.30
2019-01-29T21:05:58.025Z,13.30
2019-01-29T21:10:59.311Z,12.60
2019-01-29T21:16:00.892Z,12.70
2019-01-29T21:21:02.575Z,12.20
2019-01-29T21:26:03.926Z,11.50
2019-01-29T21:31:05.193Z,10.80
2019-01-29T21:36:06.468Z,11.10
2019-01-29T21:41:07.715Z,10.70
2019-01-29T21:46:09.098Z,11.40
2019-01-29T21:51:10.346Z,12.30
2019-01-29T21:56:13.337Z,12.90
2019-01-29T22:01:14.717Z,12.80
2019-01-29T22:06:16.056Z,13.40
2019-01-29T22:11:19.238Z,14.10
2019-01-29T22:16:20.483Z,14.20
2019-01-29T22:21:21.768Z,13.40
2019-01-29T22:26:23.029Z,14.20
2019-01-29T22:31:24.279Z,13.70
2019-01-29T22:36:25.568Z,13.60
2019-01-29T22:41:26.830Z,13.70
2019-01-29T22:46:28.141Z,13.40
2019-01-29T22:51:29.393Z,13.70
2019-01-29T22:56:30.654Z,13.70
2019-01-29T23:01:34.113Z,13.50
2019-01-29T23:06:49.602Z,13.50
2019-01-29T23:11:50.851Z,14.30
2019-01-29T23:16:52.110Z,14.40
2019-01-29T23:21:53.460Z,14.60
2019-01-29T23:26:54.742Z,14.90
2019-01-29T23:31:56.375Z,14.40
2019-01-29T23:36:57.628Z,14.80
2019-01-29T23:41:58.885Z,14.30
2019-01-29T23:47:00.131Z,13.80
2019-01-29T23:52:01.489Z,13.80
2019-01-29T23:57:03.236Z,13.50
